createdAt,value
2018-05-24T00:00:06.466Z,3.83
2018-05-24T00:02:33.669Z,8.73
2018-05-24T00:05:00.855Z,4.70
2018-05-24T00:07:28.053Z,6.33
2018-05-24T00:09:55.259Z,3.40
2018-05-24T00:12:22.454Z,6.47
2018-05-24T00:14:49.643Z,4.30
2018-05-24T00:17:16.848Z,6.03
2018-05-24T00:19:44.049Z,4.57
2018-05-24T00:22:11.234Z,4.27
2018-05-24T00:24:38.454Z,5.40
2018-05-24T00:27:05.638Z,8.23
2018-05-24T00:29:32.843Z,4.23
2018-05-24T00:32:00.046Z,3.77
2018-05-24T00:34:27.230Z,3.97
2018-05-24T00:36:54.469Z,4.40
2018-05-24T00:39:21.860Z,4.70
2018-05-24T00:41:49.058Z,4.33
2018-05-24T00:44:16.265Z,4.20
2018-05-24T00:46:43.455Z,3.70
2018-05-24T00:49:10.638Z,5.17
2018-05-24T00:51:37.837Z,3.80
2018-05-24T00:54:05.024Z,4.57
2018-05-24T00:56:32.205Z,3.87
2018-05-24T00:58:59.410Z,4.70
2018-05-24T01:01:26.612Z,3.80
2018-05-24T01:03:53.820Z,4.20
2018-05-24T01:06:20.998Z,4.43
2018-05-24T01:08:48.214Z,5.60
2018-05-24T01:11:15.423Z,3.50
2018-05-24T01:13:42.618Z,3.47
2018-05-24T01:16:09.823Z,11.90
2018-05-24T01:18:37.006Z,3.70
2018-05-24T01:21:04.214Z,3.40
2018-05-24T01:23:31.402Z,4.77
2018-05-24T01:25:58.598Z,4.57
2018-05-24T01:28:25.795Z,7.10
2018-05-24T01:30:53.004Z,6.60
2018-05-24T01:33:20.192Z,4.93
2018-05-24T01:35:47.421Z,4.17
2018-05-24T01:38:14.614Z,4.90
2018-05-24T01:40:41.806Z,4.53
2018-05-24T01:43:09.022Z,5.70
2018-05-24T01:45:36.202Z,4.67
2018-05-24T01:48:03.412Z,4.20
2018-05-24T01:50:30.603Z,5.07
2018-05-24T01:52:57.802Z,8.03
2018-05-24T01:55:24.996Z,5.93
2018-05-24T01:57:52.177Z,5.80
2018-05-24T02:00:19.384Z,5.53
2018-05-24T02:02:46.564Z,5.93
2018-05-24T02:05:13.776Z,5.20
2018-05-24T02:07:40.971Z,5.67
2018-05-24T02:10:08.161Z,5.70
2018-05-24T02:12:35.359Z,6.47
2018-05-24T02:15:02.545Z,4.77
2018-05-24T02:17:29.738Z,5.80
2018-05-24T02:19:56.915Z,7.13
2018-05-24T02:22:24.147Z,6.00
2018-05-24T02:24:51.328Z,4.83
2018-05-24T02:27:18.533Z,5.23
2018-05-24T02:29:45.710Z,5.70
2018-05-24T02:32:12.922Z,5.13
2018-05-24T02:34:40.125Z,12.43
2018-05-24T02:37:07.331Z,5.17
2018-05-24T02:39:34.530Z,5.47
2018-05-24T02:42:01.721Z,4.90
2018-05-24T02:44:28.907Z,4.53
2018-05-24T02:46:56.111Z,4.07
2018-05-24T02:49:23.290Z,8.20
2018-05-24T02:51:50.494Z,4.63
2018-05-24T02:54:17.693Z,4.67
2018-05-24T02:56:44.907Z,5.73
2018-05-24T02:59:12.092Z,4.80
2018-05-24T03:01:39.358Z,5.50
2018-05-24T03:04:06.733Z,6.27
2018-05-24T03:06:33.923Z,4.70
2018-05-24T03:09:01.131Z,4.33
2018-05-24T03:11:28.313Z,4.03
2018-05-24T03:13:55.507Z,5.43
2018-05-24T03:16:22.713Z,6.73
2018-05-24T03:18:49.894Z,4.17
2018-05-24T03:21:17.097Z,5.27
2018-05-24T03:23:44.322Z,6.63
2018-05-24T03:26:11.501Z,5.10
2018-05-24T03:28:38.700Z,6.60
2018-05-24T03:31:05.887Z,5.00
2018-05-24T03:33:33.092Z,6.00
2018-05-24T03:36:00.282Z,5.20
2018-05-24T03:38:27.477Z,4.30
2018-05-24T03:40:54.843Z,4.70
2018-05-24T03:43:22.054Z,5.07
2018-05-24T03:45:49.250Z,7.40
2018-05-24T03:48:16.449Z,5.10
2018-05-24T03:50:43.653Z,7.63
2018-05-24T03:53:10.864Z,10.03
2018-05-24T03:55:38.049Z,7.90
2018-05-24T03:58:05.240Z,5.47
2018-05-24T04:00:38.208Z,6.10
2018-05-24T04:03:11.086Z,6.50
2018-05-24T04:05:38.315Z,4.87
2018-05-24T04:08:05.677Z,9.47
2018-05-24T04:10:32.878Z,5.40
2018-05-24T04:13:00.077Z,5.27
2018-05-24T04:15:27.266Z,5.40
2018-05-24T04:17:54.458Z,4.80
2018-05-24T04:20:21.646Z,8.63
2018-05-24T04:22:48.861Z,5.90
2018-05-24T04:25:16.054Z,5.77
2018-05-24T04:27:43.461Z,8.13
2018-05-24T04:30:10.665Z,6.60
2018-05-24T04:32:37.854Z,5.67
2018-05-24T04:35:05.065Z,6.27
2018-05-24T04:37:32.279Z,6.47
2018-05-24T04:39:59.466Z,5.57
2018-05-24T04:42:26.660Z,5.50
2018-05-24T04:44:53.859Z,5.60
2018-05-24T04:47:21.054Z,5.47
2018-05-24T04:52:21.971Z,5.00
2018-05-24T04:54:49.166Z,4.97
2018-05-24T04:57:16.377Z,4.70
2018-05-24T04:59:43.578Z,7.43
2018-05-24T05:02:10.773Z,5.40
2018-05-24T05:04:37.975Z,5.67
2018-05-24T05:07:05.189Z,5.47
2018-05-24T05:09:32.399Z,5.43
2018-05-24T05:11:59.586Z,7.13
2018-05-24T05:14:26.782Z,6.10
2018-05-24T05:16:53.985Z,7.00
2018-05-24T05:19:22.900Z,6.73
2018-05-24T05:21:50.190Z,7.80
2018-05-24T05:24:37.850Z,7.63
2018-05-24T05:27:04.810Z,7.60
2018-05-24T05:29:31.997Z,9.07
2018-05-24T05:31:59.195Z,9.83
2018-05-24T05:34:26.393Z,8.37
2018-05-24T05:36:53.585Z,12.03
2018-05-24T05:39:20.786Z,8.37
2018-05-24T05:41:47.967Z,6.10
2018-05-24T05:44:15.178Z,7.43
2018-05-24T05:46:42.365Z,8.80
2018-05-24T05:49:10.395Z,7.40
2018-05-24T05:51:37.589Z,7.87
2018-05-24T05:54:04.812Z,9.30
2018-05-24T05:56:31.986Z,7.90
2018-05-24T05:58:59.195Z,15.80
2018-05-24T06:01:26.166Z,8.33
2018-05-24T06:03:53.377Z,10.43
2018-05-24T06:06:20.590Z,7.30
2018-05-24T06:08:47.795Z,9.70
2018-05-24T06:11:15.034Z,8.80
2018-05-24T06:13:42.286Z,7.43
2018-05-24T06:16:09.626Z,7.90
2018-05-24T06:18:36.828Z,7.43
2018-05-24T06:21:04.041Z,9.70
2018-05-24T06:23:31.274Z,7.30
2018-05-24T06:25:58.502Z,6.50
2018-05-24T06:28:25.703Z,9.27
2018-05-24T06:30:53.098Z,8.13
2018-05-24T06:33:20.300Z,12.23
2018-05-24T06:35:47.493Z,7.13
2018-05-24T06:38:14.697Z,7.70
2018-05-24T06:40:41.893Z,10.03
2018-05-24T06:43:09.188Z,10.27
2018-05-24T06:45:36.528Z,8.50
2018-05-24T06:48:03.727Z,10.03
2018-05-24T06:50:30.923Z,9.23
2018-05-24T06:52:58.132Z,8.47
2018-05-24T06:55:25.315Z,13.43
2018-05-24T06:57:52.530Z,15.90
2018-05-24T07:00:19.722Z,14.63
2018-05-24T07:02:46.931Z,8.17
2018-05-24T07:05:14.141Z,11.07
2018-05-24T07:07:41.348Z,10.60
2018-05-24T07:10:08.563Z,11.30
2018-05-24T07:12:35.750Z,9.47
2018-05-24T07:15:02.967Z,7.47
2018-05-24T07:17:30.185Z,8.60
2018-05-24T07:19:57.400Z,11.67
2018-05-24T07:22:24.615Z,12.57
2018-05-24T07:24:51.804Z,8.17
2018-05-24T07:27:19.002Z,9.50
2018-05-24T07:29:46.190Z,9.70
2018-05-24T07:32:13.394Z,9.20
2018-05-24T07:34:40.594Z,11.83
2018-05-24T07:37:07.793Z,10.50
2018-05-24T07:39:35.071Z,13.00
2018-05-24T07:42:02.386Z,10.73
2018-05-24T07:44:29.613Z,15.10
2018-05-24T07:46:56.858Z,17.87
2018-05-24T07:49:24.067Z,17.50
2018-05-24T07:51:51.276Z,17.53
2018-05-24T07:54:18.485Z,19.47
2018-05-24T07:56:45.679Z,17.37
2018-05-24T07:59:12.939Z,21.40
2018-05-24T08:01:40.381Z,20.20
2018-05-24T08:04:11.844Z,19.90
2018-05-24T08:06:39.060Z,18.23
2018-05-24T08:09:06.269Z,19.03
2018-05-24T08:11:33.466Z,21.53
2018-05-24T08:14:00.702Z,21.60
2018-05-24T08:16:28.462Z,16.50
2018-05-24T08:18:55.653Z,15.87
2018-05-24T08:21:22.890Z,19.93
2018-05-24T08:23:50.102Z,17.30
2018-05-24T08:26:17.319Z,17.90
2018-05-24T08:28:44.564Z,17.10
2018-05-24T08:31:11.775Z,18.43
2018-05-24T08:33:39.023Z,17.80
2018-05-24T08:36:06.246Z,19.20
2018-05-24T08:38:33.435Z,19.17
2018-05-24T08:41:00.670Z,13.53
2018-05-24T08:43:28.031Z,15.60
2018-05-24T08:45:55.230Z,15.60
2018-05-24T08:48:22.439Z,21.37
2018-05-24T08:50:49.630Z,14.53
2018-05-24T08:53:16.850Z,15.07
2018-05-24T08:55:44.234Z,17.30
2018-05-24T08:58:11.430Z,13.80
2018-05-24T09:00:38.618Z,12.67
2018-05-24T09:03:05.856Z,16.43
2018-05-24T09:05:33.100Z,21.97
2018-05-24T09:08:00.287Z,20.83
2018-05-24T09:10:27.535Z,20.33
2018-05-24T09:12:54.726Z,17.83
2018-05-24T09:15:21.946Z,19.47
2018-05-24T09:17:49.160Z,17.23
2018-05-24T09:20:16.435Z,18.87
2018-05-24T09:22:43.794Z,17.20
2018-05-24T09:25:11.096Z,33.47
2018-05-24T09:27:38.336Z,17.23
2018-05-24T09:30:05.576Z,23.70
2018-05-24T09:32:32.795Z,18.73
2018-05-24T09:35:00.054Z,20.20
2018-05-24T09:37:27.398Z,17.10
2018-05-24T09:39:54.618Z,19.50
2018-05-24T09:42:21.818Z,19.87
2018-05-24T09:44:49.025Z,20.10
2018-05-24T09:47:16.002Z,15.87
2018-05-24T09:49:43.215Z,19.23
2018-05-24T09:52:11.189Z,17.77
2018-05-24T09:54:38.407Z,16.90
2018-05-24T09:57:05.628Z,19.03
2018-05-24T09:59:32.820Z,21.10
2018-05-24T10:02:00.055Z,19.13
2018-05-24T10:04:27.535Z,19.33
2018-05-24T10:06:54.751Z,18.20
2018-05-24T10:09:21.951Z,23.20
2018-05-24T10:11:49.179Z,19.20
2018-05-24T10:14:16.432Z,17.17
2018-05-24T10:16:43.630Z,18.67
2018-05-24T10:19:10.868Z,18.47
2018-05-24T10:21:38.073Z,17.70
2018-05-24T10:24:05.285Z,21.83
2018-05-24T10:26:32.477Z,19.90
2018-05-24T10:28:59.682Z,16.93
2018-05-24T10:31:26.915Z,18.77
2018-05-24T10:33:54.125Z,17.93
2018-05-24T10:36:21.338Z,18.80
2018-05-24T10:38:48.564Z,20.80
2018-05-24T10:41:15.770Z,16.90
2018-05-24T10:43:42.978Z,14.67
2018-05-24T10:46:10.169Z,16.50
2018-05-24T10:48:37.359Z,21.40
2018-05-24T10:51:04.619Z,19.20
2018-05-24T10:53:31.984Z,19.10
2018-05-24T10:55:59.197Z,24.10
2018-05-24T10:58:26.587Z,15.13
2018-05-24T11:00:53.805Z,17.27
2018-05-24T11:03:21.017Z,18.53
2018-05-24T11:05:48.423Z,18.70
2018-05-24T11:08:15.657Z,17.80
2018-05-24T11:10:42.907Z,17.27
2018-05-24T11:13:10.109Z,21.00
2018-05-24T11:15:37.353Z,16.53
2018-05-24T11:18:04.550Z,18.83
2018-05-24T11:20:31.762Z,17.57
2018-05-24T11:22:58.987Z,16.90
2018-05-24T11:25:26.177Z,18.73
2018-05-24T11:27:53.387Z,16.93
2018-05-24T11:30:20.584Z,17.20
2018-05-24T11:32:47.809Z,20.80
2018-05-24T11:35:15.015Z,18.23
2018-05-24T11:37:42.210Z,18.70
2018-05-24T11:40:09.421Z,20.60
2018-05-24T11:42:36.626Z,21.83
2018-05-24T11:45:03.831Z,24.53
2018-05-24T11:47:30.796Z,18.53
2018-05-24T11:49:58.010Z,19.97
2018-05-24T11:52:25.206Z,21.57
2018-05-24T11:54:52.606Z,23.63
2018-05-24T11:57:19.824Z,21.73
2018-05-24T11:59:47.008Z,18.27
2018-05-24T12:02:14.200Z,20.30
2018-05-24T12:04:41.527Z,18.87
2018-05-24T12:07:08.832Z,18.53
2018-05-24T12:09:36.143Z,18.93
2018-05-24T12:12:03.368Z,21.40
2018-05-24T12:14:30.587Z,24.57
2018-05-24T12:16:57.816Z,21.67
2018-05-24T12:19:25.039Z,24.47
2018-05-24T12:21:52.241Z,18.93
2018-05-24T12:24:19.457Z,20.83
2018-05-24T12:26:46.690Z,16.60
2018-05-24T12:29:13.907Z,20.90
2018-05-24T12:31:41.315Z,18.77
2018-05-24T12:34:08.544Z,18.17
2018-05-24T12:36:35.752Z,17.03
2018-05-24T12:39:02.742Z,16.70
2018-05-24T12:41:29.948Z,21.90
2018-05-24T12:43:57.141Z,13.70
2018-05-24T12:46:24.377Z,15.13
2018-05-24T12:48:51.566Z,17.57
2018-05-24T12:51:18.763Z,14.90
2018-05-24T12:53:45.984Z,17.50
2018-05-24T12:56:13.207Z,16.10
2018-05-24T12:58:40.432Z,17.57
2018-05-24T13:01:07.650Z,17.67
2018-05-24T13:03:34.854Z,19.83
2018-05-24T13:06:02.062Z,20.93
2018-05-24T13:08:29.289Z,20.10
2018-05-24T13:10:56.536Z,16.40
2018-05-24T13:13:23.776Z,20.27
2018-05-24T13:15:50.997Z,17.73
2018-05-24T13:18:18.201Z,18.00
2018-05-24T13:20:45.397Z,16.13
2018-05-24T13:23:12.603Z,14.63
2018-05-24T13:25:39.812Z,18.27
2018-05-24T13:28:07.045Z,15.30
2018-05-24T13:30:34.232Z,13.03
2018-05-24T13:33:01.446Z,16.33
2018-05-24T13:35:28.652Z,16.07
2018-05-24T13:37:55.870Z,22.90
2018-05-24T13:40:23.087Z,17.50
2018-05-24T13:42:50.493Z,14.13
2018-05-24T13:45:17.808Z,17.97
2018-05-24T13:47:45.111Z,14.90
2018-05-24T13:50:12.318Z,15.27
2018-05-24T13:52:39.585Z,17.97
2018-05-24T13:55:06.958Z,23.03
2018-05-24T13:57:39.764Z,14.97
2018-05-24T14:00:06.969Z,14.10
2018-05-24T14:02:34.167Z,16.20
2018-05-24T14:05:01.365Z,17.37
2018-05-24T14:07:28.565Z,15.00
2018-05-24T14:09:55.765Z,16.67
2018-05-24T14:12:22.997Z,13.37
2018-05-24T14:14:50.216Z,16.23
2018-05-24T14:17:17.440Z,14.37
2018-05-24T14:19:44.661Z,14.30
2018-05-24T14:22:11.879Z,12.50
2018-05-24T14:24:39.100Z,16.23
2018-05-24T14:27:06.319Z,15.17
2018-05-24T14:29:33.540Z,12.57
2018-05-24T14:32:00.733Z,13.70
2018-05-24T14:34:27.939Z,14.07
2018-05-24T14:36:55.142Z,12.40
2018-05-24T14:39:22.363Z,12.80
2018-05-24T14:41:49.757Z,16.93
2018-05-24T14:44:16.972Z,14.50
2018-05-24T14:46:44.228Z,10.77
2018-05-24T14:49:11.425Z,16.37
2018-05-24T14:51:38.697Z,11.33
2018-05-24T14:54:05.883Z,12.33
2018-05-24T14:56:33.100Z,9.57
2018-05-24T14:59:00.296Z,13.20
2018-05-24T15:01:27.509Z,12.50
2018-05-24T15:03:54.702Z,11.80
2018-05-24T15:06:21.926Z,11.67
2018-05-24T15:08:49.146Z,11.33
2018-05-24T15:11:16.339Z,15.00
2018-05-24T15:13:49.317Z,11.93
2018-05-24T15:16:16.518Z,13.40
2018-05-24T15:18:43.795Z,11.00
2018-05-24T15:21:10.991Z,16.13
2018-05-24T15:23:38.212Z,14.20
2018-05-24T15:26:05.166Z,10.93
2018-05-24T15:28:32.386Z,12.17
2018-05-24T15:30:59.609Z,10.20
2018-05-24T15:33:26.844Z,14.73
2018-05-24T15:35:54.292Z,12.40
2018-05-24T15:38:21.491Z,11.50
2018-05-24T15:40:48.710Z,11.70
2018-05-24T15:43:15.935Z,10.50
2018-05-24T15:45:43.156Z,23.93
2018-05-24T15:48:10.356Z,15.77
2018-05-24T15:50:37.579Z,14.97
2018-05-24T15:53:04.775Z,19.10
2018-05-24T15:55:31.982Z,13.43
2018-05-24T15:57:59.187Z,12.67
2018-05-24T16:00:26.387Z,12.27
2018-05-24T16:02:53.594Z,11.70
2018-05-24T16:05:20.824Z,9.73
2018-05-24T16:07:48.054Z,10.00
2018-05-24T16:10:15.284Z,11.23
2018-05-24T16:12:42.488Z,9.83
2018-05-24T16:15:09.675Z,14.60
2018-05-24T16:17:36.886Z,9.60
2018-05-24T16:20:04.104Z,10.17
2018-05-24T16:22:31.335Z,20.83
2018-05-24T16:24:58.544Z,12.13
2018-05-24T16:27:25.762Z,11.10
2018-05-24T16:29:52.959Z,12.10
2018-05-24T16:32:20.151Z,10.33
2018-05-24T16:34:47.362Z,21.33
2018-05-24T16:37:14.337Z,9.10
2018-05-24T16:39:41.563Z,16.50
2018-05-24T16:42:08.825Z,10.57
2018-05-24T16:44:36.028Z,8.07
2018-05-24T16:47:03.219Z,9.30
2018-05-24T16:49:30.437Z,14.77
2018-05-24T16:51:57.700Z,13.40
2018-05-24T16:54:24.976Z,9.13
2018-05-24T16:56:52.344Z,11.47
2018-05-24T16:59:19.559Z,16.53
2018-05-24T17:01:46.792Z,12.80
2018-05-24T17:04:14.166Z,10.33
2018-05-24T17:06:41.356Z,9.57
2018-05-24T17:09:08.579Z,8.83
2018-05-24T17:11:35.787Z,15.00
2018-05-24T17:14:03.030Z,10.70
2018-05-24T17:16:30.233Z,9.40
2018-05-24T17:18:57.420Z,12.10
2018-05-24T17:21:24.635Z,9.77
2018-05-24T17:23:51.871Z,10.33
2018-05-24T17:26:19.112Z,8.47
2018-05-24T17:28:46.315Z,10.63
2018-05-24T17:31:13.511Z,19.43
2018-05-24T17:33:40.745Z,16.83
2018-05-24T17:36:07.932Z,9.10
2018-05-24T17:38:35.133Z,9.80
2018-05-24T17:41:02.337Z,9.73
2018-05-24T17:43:29.587Z,13.03
2018-05-24T17:45:56.947Z,16.60
2018-05-24T17:48:24.177Z,15.03
2018-05-24T17:50:51.442Z,17.83
2018-05-24T17:53:18.666Z,22.83
2018-05-24T17:55:45.873Z,15.80
2018-05-24T17:58:13.076Z,17.87
2018-05-24T18:00:40.269Z,13.47
2018-05-24T18:03:07.542Z,14.13
2018-05-24T18:05:34.961Z,12.70
2018-05-24T18:08:02.274Z,10.73
2018-05-24T18:10:29.507Z,11.40
2018-05-24T18:12:56.730Z,9.30
2018-05-24T18:15:23.950Z,8.33
2018-05-24T18:17:51.166Z,8.60
2018-05-24T18:20:18.366Z,9.30
2018-05-24T18:22:45.578Z,13.87
2018-05-24T18:25:12.828Z,14.83
2018-05-24T18:27:41.055Z,13.30
2018-05-24T18:30:08.302Z,55.63
2018-05-24T18:32:35.511Z,41.63
2018-05-24T18:35:02.779Z,19.80
2018-05-24T18:37:30.040Z,31.83
2018-05-24T18:39:57.283Z,23.77
2018-05-24T18:42:24.506Z,29.57
2018-05-24T18:44:51.735Z,22.30
2018-05-24T18:47:18.945Z,10.47
2018-05-24T18:49:46.226Z,12.13
2018-05-24T18:52:13.615Z,8.53
2018-05-24T18:54:40.854Z,8.50
2018-05-24T18:57:08.086Z,24.47
2018-05-24T18:59:51.224Z,12.30
2018-05-24T19:02:18.605Z,13.77
2018-05-24T19:04:45.805Z,13.90
2018-05-24T19:07:13.049Z,13.00
2018-05-24T19:09:40.298Z,15.27
2018-05-24T19:12:07.546Z,10.43
2018-05-24T19:14:34.822Z,9.93
2018-05-24T19:17:02.056Z,25.77
2018-05-24T19:19:29.280Z,15.73
2018-05-24T19:21:56.490Z,11.20
2018-05-24T19:24:23.775Z,12.17
2018-05-24T19:26:51.042Z,12.17
2018-05-24T19:29:18.294Z,10.10
2018-05-24T19:31:45.530Z,12.23
2018-05-24T19:34:12.775Z,11.80
2018-05-24T19:36:39.993Z,4.60
2018-05-24T19:39:07.198Z,4.10
2018-05-24T19:41:34.484Z,5.10
2018-05-24T19:44:01.748Z,2.23
2018-05-24T19:46:28.996Z,3.67
2018-05-24T19:48:56.219Z,1.50
2018-05-24T19:51:23.463Z,2.37
2018-05-24T19:53:50.728Z,2.13
2018-05-24T19:56:17.952Z,16.33
2018-05-24T19:58:45.258Z,1.53
2018-05-24T20:01:14.234Z,4.30
2018-05-24T20:03:41.451Z,1.10
2018-05-24T20:06:08.660Z,2.00
2018-05-24T20:08:35.914Z,2.80
2018-05-24T20:11:03.130Z,1.43
2018-05-24T20:13:30.419Z,0.90
2018-05-24T20:15:57.659Z,1.53
2018-05-24T20:18:24.955Z,4.97
2018-05-24T20:20:52.231Z,1.47
2018-05-24T20:23:19.431Z,1.10
2018-05-24T20:25:46.692Z,1.20
2018-05-24T20:28:13.889Z,6.43
2018-05-24T20:30:41.112Z,2.57
2018-05-24T20:33:08.296Z,1.17
2018-05-24T20:35:35.600Z,1.67
2018-05-24T20:38:02.972Z,2.03
2018-05-24T20:40:30.200Z,1.53
2018-05-24T20:42:57.418Z,1.17
2018-05-24T20:45:24.654Z,1.80
2018-05-24T20:47:51.861Z,2.40
2018-05-24T20:50:19.898Z,2.03
2018-05-24T20:52:47.130Z,4.30
2018-05-24T20:55:14.369Z,2.13
2018-05-24T20:57:41.569Z,5.90
2018-05-24T21:00:09.370Z,1.10
2018-05-24T21:02:36.564Z,3.40
2018-05-24T21:05:03.791Z,3.30
2018-05-24T21:07:34.072Z,3.97
2018-05-24T21:10:01.382Z,2.70
2018-05-24T21:12:28.605Z,1.50
2018-05-24T21:14:55.827Z,1.77
2018-05-24T21:17:23.091Z,1.90
2018-05-24T21:19:50.343Z,5.50
2018-05-24T21:22:17.595Z,4.67
2018-05-24T21:24:45.126Z,5.07
2018-05-24T21:27:12.320Z,2.43
2018-05-24T21:29:39.592Z,1.53
2018-05-24T21:32:06.842Z,4.17
2018-05-24T21:34:34.115Z,2.83
2018-05-24T21:37:01.360Z,3.03
2018-05-24T21:39:28.608Z,3.43
2018-05-24T21:41:55.662Z,3.33
2018-05-24T21:44:22.885Z,4.60
2018-05-24T21:46:50.094Z,2.00
2018-05-24T21:49:17.289Z,1.70
2018-05-24T21:51:44.554Z,5.90
2018-05-24T21:54:11.731Z,1.93
2018-05-24T21:56:38.934Z,1.53
2018-05-24T21:59:06.121Z,1.83
2018-05-24T22:01:33.319Z,6.07
2018-05-24T22:04:00.515Z,1.80
2018-05-24T22:06:27.702Z,4.90
2018-05-24T22:08:54.990Z,10.03
2018-05-24T22:11:22.211Z,1.60
2018-05-24T22:13:49.424Z,2.63
2018-05-24T22:16:16.709Z,5.20
2018-05-24T22:18:44.067Z,1.47
2018-05-24T22:21:11.250Z,2.97
2018-05-24T22:23:38.459Z,3.73
2018-05-24T22:26:05.648Z,2.10
2018-05-24T22:28:32.870Z,1.17
2018-05-24T22:31:00.118Z,2.70
2018-05-24T22:33:27.332Z,1.50
2018-05-24T22:35:54.518Z,6.53
2018-05-24T22:38:21.736Z,7.47
2018-05-24T22:40:48.921Z,1.37
2018-05-24T22:43:16.134Z,2.83
2018-05-24T22:45:43.320Z,1.77
2018-05-24T22:48:10.569Z,2.60
2018-05-24T22:50:37.758Z,2.87
2018-05-24T22:53:04.704Z,2.03
2018-05-24T22:55:31.922Z,2.73
2018-05-24T22:57:59.107Z,6.17
2018-05-24T23:00:26.319Z,1.83
2018-05-24T23:02:53.690Z,1.83
2018-05-24T23:05:20.903Z,2.83
2018-05-24T23:07:48.092Z,1.67
2018-05-24T23:10:15.288Z,4.57
2018-05-24T23:12:42.460Z,4.97
2018-05-24T23:15:09.663Z,1.57
2018-05-24T23:17:36.862Z,1.43
2018-05-24T23:20:04.262Z,8.13
2018-05-24T23:22:37.038Z,2.83
2018-05-24T23:25:04.245Z,1.40
2018-05-24T23:27:31.453Z,1.53
2018-05-24T23:29:58.639Z,4.10
2018-05-24T23:32:25.817Z,3.07
2018-05-24T23:34:53.022Z,6.17
2018-05-24T23:37:20.010Z,3.87
2018-05-24T23:39:47.225Z,1.57
2018-05-24T23:42:14.414Z,1.30
2018-05-24T23:44:41.612Z,1.97
2018-05-24T23:47:08.803Z,4.70
2018-05-24T23:49:35.993Z,1.70
2018-05-24T23:52:03.203Z,1.80
2018-05-24T23:54:30.400Z,1.40
2018-05-24T23:56:57.623Z,1.50
2018-05-24T23:59:24.821Z,1.23
